sensor_id;sensor_type;location;lat;lon;timestamp;temperature;humidity
4677;DHT22;2352;48.180;11.478;2022-10-22T00:00:00;17.00;99.90
4677;DHT22;2352;48.180;11.478;2022-10-22T00:03:03;17.00;99.90
4677;DHT22;2352;48.180;11.478;2022-10-22T00:06:06;17.00;99.90
4677;DHT22;2352;48.180;11.478;2022-10-22T00:09:10;17.00;99.90
4677;DHT22;2352;48.180;11.478;2022-10-22T00:12:14;17.00;99.90
4677;DHT22;2352;48.180;11.478;2022-10-22T00:15:19;17.00;99.90
4677;DHT22;2352;48.180;11.478;2022-10-22T00:18:22;17.00;99.90
4677;DHT22;2352;48.180;11.478;2022-10-22T00:21:25;17.00;99.90
4677;DHT22;2352;48.180;11.478;2022-10-22T00:24:30;17.00;99.90
4677;DHT22;2352;48.180;11.478;2022-10-22T00:27:33;17.00;99.90
4677;DHT22;2352;48.180;11.478;2022-10-22T00:30:37;17.00;99.90
4677;DHT22;2352;48.180;11.478;2022-10-22T00:33:41;16.90;99.90
4677;DHT22;2352;48.180;11.478;2022-10-22T00:36:44;16.90;99.90
4677;DHT22;2352;48.180;11.478;2022-10-22T00:39:47;16.90;99.90
4677;DHT22;2352;48.180;11.478;2022-10-22T00:42:51;16.80;99.90
4677;DHT22;2352;48.180;11.478;2022-10-22T00:45:55;16.80;99.90
4677;DHT22;2352;48.180;11.478;2022-10-22T00:49:02;16.80;99.90
4677;DHT22;2352;48.180;11.478;2022-10-22T00:52:06;16.70;99.90
4677;DHT22;2352;48.180;11.478;2022-10-22T00:55:10;16.50;99.90
4677;DHT22;2352;48.180;11.478;2022-10-22T00:58:15;16.40;99.90
4677;DHT22;2352;48.180;11.478;2022-10-22T01:01:26;16.20;99.90
4677;DHT22;2352;48.180;11.478;2022-10-22T01:04:29;16.20;99.90
4677;DHT22;2352;48.180;11.478;2022-10-22T01:07:37;16.20;99.90
4677;DHT22;2352;48.180;11.478;2022-10-22T01:10:52;16.20;99.90
4677;DHT22;2352;48.180;11.478;2022-10-22T01:14:02;16.30;99.90
4677;DHT22;2352;48.180;11.478;2022-10-22T01:17:10;16.40;99.90
4677;DHT22;2352;48.180;11.478;2022-10-22T01:20:33;16.30;99.90
4677;DHT22;2352;48.180;11.478;2022-10-22T01:27:39;16.40;99.90
4677;DHT22;2352;48.180;11.478;2022-10-22T01:30:50;16.30;99.90
4677;DHT22;2352;48.180;11.478;2022-10-22T01:33:58;16.20;99.90
4677;DHT22;2352;48.180;11.478;2022-10-22T01:37:03;16.20;99.90
4677;DHT22;2352;48.180;11.478;2022-10-22T01:40:07;16.30;99.90
4677;DHT22;2352;48.180;11.478;2022-10-22T01:43:12;16.30;99.90
4677;DHT22;2352;48.180;11.478;2022-10-22T01:46:17;16.40;99.90
4677;DHT22;2352;48.180;11.478;2022-10-22T01:49:27;16.40;99.90
4677;DHT22;2352;48.180;11.478;2022-10-22T01:52:43;16.40;99.90
4677;DHT22;2352;48.180;11.478;2022-10-22T01:55:59;16.50;99.90
4677;DHT22;2352;48.180;11.478;2022-10-22T01:59:07;16.40;99.90
4677;DHT22;2352;48.180;11.478;2022-10-22T02:02:27;16.30;99.90
4677;DHT22;2352;48.180;11.478;2022-10-22T02:05:34;16.30;99.90
4677;DHT22;2352;48.180;11.478;2022-10-22T02:08:38;16.40;99.90
4677;DHT22;2352;48.180;11.478;2022-10-22T02:11:43;16.30;99.90
4677;DHT22;2352;48.180;11.478;2022-10-22T02:14:47;16.30;99.90
4677;DHT22;2352;48.180;11.478;2022-10-22T02:17:54;16.20;99.90
4677;DHT22;2352;48.180;11.478;2022-10-22T02:20:59;16.10;99.90
4677;DHT22;2352;48.180;11.478;2022-10-22T02:24:03;16.10;99.90
4677;DHT22;2352;48.180;11.478;2022-10-22T02:27:11;16.10;99.90
4677;DHT22;2352;48.180;11.478;2022-10-22T02:30:20;16.10;99.90
4677;DHT22;2352;48.180;11.478;2022-10-22T02:33:27;16.10;99.90
4677;DHT22;2352;48.180;11.478;2022-10-22T02:36:32;16.20;99.90
4677;DHT22;2352;48.180;11.478;2022-10-22T02:39:35;16.20;99.90
4677;DHT22;2352;48.180;11.478;2022-10-22T02:42:40;16.10;99.90
4677;DHT22;2352;48.180;11.478;2022-10-22T02:45:44;15.90;99.90
4677;DHT22;2352;48.180;11.478;2022-10-22T02:48:49;15.80;99.90
4677;DHT22;2352;48.180;11.478;2022-10-22T02:51:53;15.80;99.90
4677;DHT22;2352;48.180;11.478;2022-10-22T02:54:56;15.80;99.90
4677;DHT22;2352;48.180;11.478;2022-10-22T02:57:59;15.80;99.90
4677;DHT22;2352;48.180;11.478;2022-10-22T03:01:02;15.80;99.90
4677;DHT22;2352;48.180;11.478;2022-10-22T03:04:07;15.80;99.90
4677;DHT22;2352;48.180;11.478;2022-10-22T03:07:10;15.90;99.90
4677;DHT22;2352;48.180;11.478;2022-10-22T03:10:14;15.90;99.90
4677;DHT22;2352;48.180;11.478;2022-10-22T03:13:18;15.90;99.90
4677;DHT22;2352;48.180;11.478;2022-10-22T03:16:21;16.00;99.90
4677;DHT22;2352;48.180;11.478;2022-10-22T03:19:26;15.90;99.90
4677;DHT22;2352;48.180;11.478;2022-10-22T03:22:31;16.00;99.90
4677;DHT22;2352;48.180;11.478;2022-10-22T03:25:35;16.00;99.90
4677;DHT22;2352;48.180;11.478;2022-10-22T03:28:39;16.00;99.90
4677;DHT22;2352;48.180;11.478;2022-10-22T03:31:42;16.10;99.90
4677;DHT22;2352;48.180;11.478;2022-10-22T03:34:47;16.00;99.90
4677;DHT22;2352;48.180;11.478;2022-10-22T03:37:51;15.80;99.90
4677;DHT22;2352;48.180;11.478;2022-10-22T03:40:55;15.70;99.90
4677;DHT22;2352;48.180;11.478;2022-10-22T03:43:59;15.70;99.90
4677;DHT22;2352;48.180;11.478;2022-10-22T03:47:04;15.70;99.90
4677;DHT22;2352;48.180;11.478;2022-10-22T03:50:09;15.60;99.90
4677;DHT22;2352;48.180;11.478;2022-10-22T03:53:13;15.50;99.90
4677;DHT22;2352;48.180;11.478;2022-10-22T03:56:16;15.30;99.90
4677;DHT22;2352;48.180;11.478;2022-10-22T03:59:19;15.30;99.90
4677;DHT22;2352;48.180;11.478;2022-10-22T04:02:22;15.30;99.90
4677;DHT22;2352;48.180;11.478;2022-10-22T04:05:27;15.20;99.90
4677;DHT22;2352;48.180;11.478;2022-10-22T04:08:30;15.30;99.90
4677;DHT22;2352;48.180;11.478;2022-10-22T04:11:34;15.30;99.90
4677;DHT22;2352;48.180;11.478;2022-10-22T04:14:37;15.10;99.90
4677;DHT22;2352;48.180;11.478;2022-10-22T04:17:40;15.10;99.90
4677;DHT22;2352;48.180;11.478;2022-10-22T04:20:45;15.10;99.90
4677;DHT22;2352;48.180;11.478;2022-10-22T04:23:50;15.10;99.90
4677;DHT22;2352;48.180;11.478;2022-10-22T04:26:54;15.10;99.90
4677;DHT22;2352;48.180;11.478;2022-10-22T04:29:57;15.00;99.90
4677;DHT22;2352;48.180;11.478;2022-10-22T04:33:01;15.00;99.90
4677;DHT22;2352;48.180;11.478;2022-10-22T04:36:11;15.10;99.90
4677;DHT22;2352;48.180;11.478;2022-10-22T04:39:14;15.10;99.90
4677;DHT22;2352;48.180;11.478;2022-10-22T04:42:17;15.20;99.90
4677;DHT22;2352;48.180;11.478;2022-10-22T04:45:20;15.30;99.90
4677;DHT22;2352;48.180;11.478;2022-10-22T04:48:24;15.30;99.90
4677;DHT22;2352;48.180;11.478;2022-10-22T04:51:28;15.40;99.90
4677;DHT22;2352;48.180;11.478;2022-10-22T04:54:32;15.30;99.90
4677;DHT22;2352;48.180;11.478;2022-10-22T04:57:35;15.30;99.90
4677;DHT22;2352;48.180;11.478;2022-10-22T05:00:38;15.40;99.90
4677;DHT22;2352;48.180;11.478;2022-10-22T05:03:42;15.30;99.90
4677;DHT22;2352;48.180;11.478;2022-10-22T05:06:47;15.30;99.90
4677;DHT22;2352;48.180;11.478;2022-10-22T05:09:50;15.30;99.90
4677;DHT22;2352;48.180;11.478;2022-10-22T05:12:55;15.30;99.90
4677;DHT22;2352;48.180;11.478;2022-10-22T05:16:00;15.20;99.90
4677;DHT22;2352;48.180;11.478;2022-10-22T05:19:04;15.10;99.90
4677;DHT22;2352;48.180;11.478;2022-10-22T05:22:09;15.10;99.90
4677;DHT22;2352;48.180;11.478;2022-10-22T05:25:13;14.90;99.90
4677;DHT22;2352;48.180;11.478;2022-10-22T05:28:16;14.70;99.90
4677;DHT22;2352;48.180;11.478;2022-10-22T05:31:19;14.80;99.90
4677;DHT22;2352;48.180;11.478;2022-10-22T05:34:22;14.90;99.90
4677;DHT22;2352;48.180;11.478;2022-10-22T05:37:27;15.00;99.90
4677;DHT22;2352;48.180;11.478;2022-10-22T05:40:30;15.10;99.90
4677;DHT22;2352;48.180;11.478;2022-10-22T05:43:34;15.10;99.90
4677;DHT22;2352;48.180;11.478;2022-10-22T05:46:37;15.10;99.90
4677;DHT22;2352;48.180;11.478;2022-10-22T05:49:40;15.20;99.90
4677;DHT22;2352;48.180;11.478;2022-10-22T05:52:45;15.30;99.90
4677;DHT22;2352;48.180;11.478;2022-10-22T05:55:49;15.30;99.90
4677;DHT22;2352;48.180;11.478;2022-10-22T05:58:52;15.40;99.90
4677;DHT22;2352;48.180;11.478;2022-10-22T06:01:56;15.40;99.90
4677;DHT22;2352;48.180;11.478;2022-10-22T06:05:00;15.50;99.90
4677;DHT22;2352;48.180;11.478;2022-10-22T06:08:05;15.50;99.90
4677;DHT22;2352;48.180;11.478;2022-10-22T06:11:08;15.60;99.90
4677;DHT22;2352;48.180;11.478;2022-10-22T06:14:12;15.60;99.90
4677;DHT22;2352;48.180;11.478;2022-10-22T06:17:15;15.70;99.90
4677;DHT22;2352;48.180;11.478;2022-10-22T06:20:20;15.70;99.90
4677;DHT22;2352;48.180;11.478;2022-10-22T06:23:24;15.70;99.90
4677;DHT22;2352;48.180;11.478;2022-10-22T06:26:28;15.70;99.90
4677;DHT22;2352;48.180;11.478;2022-10-22T06:29:32;15.70;99.90
4677;DHT22;2352;48.180;11.478;2022-10-22T06:32:35;15.70;99.90
4677;DHT22;2352;48.180;11.478;2022-10-22T06:35:39;15.60;99.90
4677;DHT22;2352;48.180;11.478;2022-10-22T06:38:43;15.70;99.90
4677;DHT22;2352;48.180;11.478;2022-10-22T06:41:46;16.00;99.90
4677;DHT22;2352;48.180;11.478;2022-10-22T06:44:50;15.70;99.90
4677;DHT22;2352;48.180;11.478;2022-10-22T06:47:53;15.60;99.90
4677;DHT22;2352;48.180;11.478;2022-10-22T06:51:00;15.70;99.90
4677;DHT22;2352;48.180;11.478;2022-10-22T06:54:06;15.70;99.90
4677;DHT22;2352;48.180;11.478;2022-10-22T06:57:12;15.70;99.90
4677;DHT22;2352;48.180;11.478;2022-10-22T07:00:17;15.70;99.90
4677;DHT22;2352;48.180;11.478;2022-10-22T07:03:20;15.80;99.90
4677;DHT22;2352;48.180;11.478;2022-10-22T07:06:25;15.80;99.90
4677;DHT22;2352;48.180;11.478;2022-10-22T07:09:29;15.80;99.90
4677;DHT22;2352;48.180;11.478;2022-10-22T07:12:35;15.90;99.90
4677;DHT22;2352;48.180;11.478;2022-10-22T07:15:42;15.90;99.90
4677;DHT22;2352;48.180;11.478;2022-10-22T07:18:46;15.90;99.90
4677;DHT22;2352;48.180;11.478;2022-10-22T07:21:50;15.90;99.90
4677;DHT22;2352;48.180;11.478;2022-10-22T07:24:54;16.00;99.90
4677;DHT22;2352;48.180;11.478;2022-10-22T07:27:58;15.90;99.90
4677;DHT22;2352;48.180;11.478;2022-10-22T07:31:05;16.00;99.90
4677;DHT22;2352;48.180;11.478;2022-10-22T07:34:09;16.20;99.90
4677;DHT22;2352;48.180;11.478;2022-10-22T07:37:12;16.00;99.90
4677;DHT22;2352;48.180;11.478;2022-10-22T07:40:17;16.00;99.90
4677;DHT22;2352;48.180;11.478;2022-10-22T07:43:20;16.00;99.90
4677;DHT22;2352;48.180;11.478;2022-10-22T07:46:24;15.90;99.90
4677;DHT22;2352;48.180;11.478;2022-10-22T07:49:27;16.00;99.90
4677;DHT22;2352;48.180;11.478;2022-10-22T07:52:30;16.00;99.90
4677;DHT22;2352;48.180;11.478;2022-10-22T07:55:35;16.00;99.90
4677;DHT22;2352;48.180;11.478;2022-10-22T07:58:38;16.00;99.90
4677;DHT22;2352;48.180;11.478;2022-10-22T08:01:42;16.00;99.90
4677;DHT22;2352;48.180;11.478;2022-10-22T08:04:45;16.10;99.90
4677;DHT22;2352;48.180;11.478;2022-10-22T08:07:48;16.00;99.90
4677;DHT22;2352;48.180;11.478;2022-10-22T08:10:54;16.10;99.90
4677;DHT22;2352;48.180;11.478;2022-10-22T08:13:59;16.10;99.90
4677;DHT22;2352;48.180;11.478;2022-10-22T08:17:02;16.10;99.90
4677;DHT22;2352;48.180;11.478;2022-10-22T08:20:07;16.00;99.90
4677;DHT22;2352;48.180;11.478;2022-10-22T08:23:10;16.00;99.90
4677;DHT22;2352;48.180;11.478;2022-10-22T08:26:14;16.00;99.90
4677;DHT22;2352;48.180;11.478;2022-10-22T08:29:17;16.10;99.90
4677;DHT22;2352;48.180;11.478;2022-10-22T08:32:22;16.10;99.90
4677;DHT22;2352;48.180;11.478;2022-10-22T08:35:26;16.10;99.90
4677;DHT22;2352;48.180;11.478;2022-10-22T08:38:29;16.20;99.90
4677;DHT22;2352;48.180;11.478;2022-10-22T08:41:35;16.20;99.90
4677;DHT22;2352;48.180;11.478;2022-10-22T08:44:58;16.20;99.90
4677;DHT22;2352;48.180;11.478;2022-10-22T08:48:10;16.30;99.90
4677;DHT22;2352;48.180;11.478;2022-10-22T08:51:19;16.30;99.90
4677;DHT22;2352;48.180;11.478;2022-10-22T08:54:29;16.30;99.90
4677;DHT22;2352;48.180;11.478;2022-10-22T08:57:42;16.40;99.90
4677;DHT22;2352;48.180;11.478;2022-10-22T09:00:58;16.30;99.90
4677;DHT22;2352;48.180;11.478;2022-10-22T09:04:07;16.20;99.90
4677;DHT22;2352;48.180;11.478;2022-10-22T09:07:13;16.00;99.90
4677;DHT22;2352;48.180;11.478;2022-10-22T09:10:17;16.00;99.90
4677;DHT22;2352;48.180;11.478;2022-10-22T09:13:22;16.00;99.90
4677;DHT22;2352;48.180;11.478;2022-10-22T09:16:34;16.00;99.90
4677;DHT22;2352;48.180;11.478;2022-10-22T09:19:47;16.20;99.90
4677;DHT22;2352;48.180;11.478;2022-10-22T09:22:56;16.30;99.90
4677;DHT22;2352;48.180;11.478;2022-10-22T09:26:05;16.30;99.90
4677;DHT22;2352;48.180;11.478;2022-10-22T09:29:20;16.30;99.90
4677;DHT22;2352;48.180;11.478;2022-10-22T09:32:25;16.30;99.90
4677;DHT22;2352;48.180;11.478;2022-10-22T09:35:32;16.40;99.90
4677;DHT22;2352;48.180;11.478;2022-10-22T09:38:39;16.30;99.90
4677;DHT22;2352;48.180;11.478;2022-10-22T09:41:42;16.50;99.90
4677;DHT22;2352;48.180;11.478;2022-10-22T09:44:51;16.50;99.90
4677;DHT22;2352;48.180;11.478;2022-10-22T09:48:08;16.60;99.90
4677;DHT22;2352;48.180;11.478;2022-10-22T09:51:17;16.60;99.90
4677;DHT22;2352;48.180;11.478;2022-10-22T09:54:22;16.60;99.90
4677;DHT22;2352;48.180;11.478;2022-10-22T09:57:28;16.70;99.90
4677;DHT22;2352;48.180;11.478;2022-10-22T10:00:33;16.70;99.90
4677;DHT22;2352;48.180;11.478;2022-10-22T10:03:36;16.70;99.90
4677;DHT22;2352;48.180;11.478;2022-10-22T10:06:41;16.80;99.90
4677;DHT22;2352;48.180;11.478;2022-10-22T10:09:45;16.90;99.90
4677;DHT22;2352;48.180;11.478;2022-10-22T10:12:54;16.90;99.90
4677;DHT22;2352;48.180;11.478;2022-10-22T10:16:05;16.90;99.90
4677;DHT22;2352;48.180;11.478;2022-10-22T10:19:26;17.00;99.90
4677;DHT22;2352;48.180;11.478;2022-10-22T10:22:43;16.90;99.90
4677;DHT22;2352;48.180;11.478;2022-10-22T10:25:56;17.00;99.90
4677;DHT22;2352;48.180;11.478;2022-10-22T10:29:13;17.20;99.90
4677;DHT22;2352;48.180;11.478;2022-10-22T10:32:38;17.30;99.90
4677;DHT22;2352;48.180;11.478;2022-10-22T10:35:52;17.50;99.90
4677;DHT22;2352;48.180;11.478;2022-10-22T10:39:02;17.60;99.90
4677;DHT22;2352;48.180;11.478;2022-10-22T10:42:21;17.70;99.90
4677;DHT22;2352;48.180;11.478;2022-10-22T10:45:35;18.00;99.90
4677;DHT22;2352;48.180;11.478;2022-10-22T10:48:48;18.10;99.90
4677;DHT22;2352;48.180;11.478;2022-10-22T10:51:56;18.20;99.90
4677;DHT22;2352;48.180;11.478;2022-10-22T10:55:10;18.20;99.90
4677;DHT22;2352;48.180;11.478;2022-10-22T10:58:20;18.40;99.90
4677;DHT22;2352;48.180;11.478;2022-10-22T11:01:33;18.50;99.20
4677;DHT22;2352;48.180;11.478;2022-10-22T11:05:00;18.70;99.40
4677;DHT22;2352;48.180;11.478;2022-10-22T11:08:10;18.90;99.50
4677;DHT22;2352;48.180;11.478;2022-10-22T11:11:18;18.90;98.10
4677;DHT22;2352;48.180;11.478;2022-10-22T11:14:28;19.00;97.40
4677;DHT22;2352;48.180;11.478;2022-10-22T11:17:35;19.10;97.30
4677;DHT22;2352;48.180;11.478;2022-10-22T11:20:49;19.40;97.60
4677;DHT22;2352;48.180;11.478;2022-10-22T11:23:59;19.50;96.40
4677;DHT22;2352;48.180;11.478;2022-10-22T11:27:10;19.60;96.00
4677;DHT22;2352;48.180;11.478;2022-10-22T11:30:17;19.90;96.50
4677;DHT22;2352;48.180;11.478;2022-10-22T11:33:25;19.90;95.10
4677;DHT22;2352;48.180;11.478;2022-10-22T11:36:30;20.10;93.70
4677;DHT22;2352;48.180;11.478;2022-10-22T11:39:38;20.30;92.40
4677;DHT22;2352;48.180;11.478;2022-10-22T11:42:45;20.40;92.40
4677;DHT22;2352;48.180;11.478;2022-10-22T11:45:56;20.30;92.00
4677;DHT22;2352;48.180;11.478;2022-10-22T11:49:02;20.10;93.10
4677;DHT22;2352;48.180;11.478;2022-10-22T11:52:22;20.20;92.30
4677;DHT22;2352;48.180;11.478;2022-10-22T11:55:33;20.30;92.30
4677;DHT22;2352;48.180;11.478;2022-10-22T11:58:40;20.40;92.40
4677;DHT22;2352;48.180;11.478;2022-10-22T12:01:47;20.50;92.20
4677;DHT22;2352;48.180;11.478;2022-10-22T12:04:50;20.70;91.90
4677;DHT22;2352;48.180;11.478;2022-10-22T12:07:56;20.80;91.70
4677;DHT22;2352;48.180;11.478;2022-10-22T12:11:14;21.00;90.80
4677;DHT22;2352;48.180;11.478;2022-10-22T12:14:21;20.90;90.30
4677;DHT22;2352;48.180;11.478;2022-10-22T12:17:27;21.00;91.30
4677;DHT22;2352;48.180;11.478;2022-10-22T12:20:31;21.30;91.00
4677;DHT22;2352;48.180;11.478;2022-10-22T12:23:36;21.50;89.90
4677;DHT22;2352;48.180;11.478;2022-10-22T12:26:39;21.70;87.90
4677;DHT22;2352;48.180;11.478;2022-10-22T12:29:42;22.00;86.80
4677;DHT22;2352;48.180;11.478;2022-10-22T12:32:45;21.90;87.00
4677;DHT22;2352;48.180;11.478;2022-10-22T12:35:49;21.70;85.90
4677;DHT22;2352;48.180;11.478;2022-10-22T12:39:00;21.60;86.10
4677;DHT22;2352;48.180;11.478;2022-10-22T12:42:04;21.60;86.00
4677;DHT22;2352;48.180;11.478;2022-10-22T12:45:08;21.50;87.50
4677;DHT22;2352;48.180;11.478;2022-10-22T12:48:16;21.40;85.60
4677;DHT22;2352;48.180;11.478;2022-10-22T12:51:21;21.20;87.50
4677;DHT22;2352;48.180;11.478;2022-10-22T12:54:27;21.30;86.30
4677;DHT22;2352;48.180;11.478;2022-10-22T12:57:32;21.30;88.10
4677;DHT22;2352;48.180;11.478;2022-10-22T13:00:35;21.70;88.20
4677;DHT22;2352;48.180;11.478;2022-10-22T13:03:41;22.00;86.00
4677;DHT22;2352;48.180;11.478;2022-10-22T13:06:47;22.30;83.60
4677;DHT22;2352;48.180;11.478;2022-10-22T13:09:58;22.60;81.60
4677;DHT22;2352;48.180;11.478;2022-10-22T13:13:03;22.80;81.30
4677;DHT22;2352;48.180;11.478;2022-10-22T13:16:19;23.10;82.60
4677;DHT22;2352;48.180;11.478;2022-10-22T13:19:39;23.30;80.80
4677;DHT22;2352;48.180;11.478;2022-10-22T13:22:53;23.40;78.20
4677;DHT22;2352;48.180;11.478;2022-10-22T13:25:59;23.60;79.40
4677;DHT22;2352;48.180;11.478;2022-10-22T13:29:09;23.90;78.90
4677;DHT22;2352;48.180;11.478;2022-10-22T13:32:26;24.20;77.50
4677;DHT22;2352;48.180;11.478;2022-10-22T13:35:31;24.40;76.60
4677;DHT22;2352;48.180;11.478;2022-10-22T13:38:34;24.60;77.60
4677;DHT22;2352;48.180;11.478;2022-10-22T13:41:38;24.60;76.50
4677;DHT22;2352;48.180;11.478;2022-10-22T13:44:46;24.80;75.00
4677;DHT22;2352;48.180;11.478;2022-10-22T13:47:51;24.90;73.60
4677;DHT22;2352;48.180;11.478;2022-10-22T13:50:55;24.90;72.00
4677;DHT22;2352;48.180;11.478;2022-10-22T13:53:59;25.00;70.70
4677;DHT22;2352;48.180;11.478;2022-10-22T13:57:06;25.00;70.30
4677;DHT22;2352;48.180;11.478;2022-10-22T14:00:12;24.70;72.60
4677;DHT22;2352;48.180;11.478;2022-10-22T14:03:19;24.40;74.50
4677;DHT22;2352;48.180;11.478;2022-10-22T14:06:25;24.00;74.30
4677;DHT22;2352;48.180;11.478;2022-10-22T14:09:29;23.80;74.30
4677;DHT22;2352;48.180;11.478;2022-10-22T14:12:34;23.70;74.60
4677;DHT22;2352;48.180;11.478;2022-10-22T14:15:38;23.60;74.90
4677;DHT22;2352;48.180;11.478;2022-10-22T14:18:41;23.40;74.00
4677;DHT22;2352;48.180;11.478;2022-10-22T14:21:46;23.30;75.50
4677;DHT22;2352;48.180;11.478;2022-10-22T14:24:50;23.20;75.90
4677;DHT22;2352;48.180;11.478;2022-10-22T14:27:56;23.20;76.20
4677;DHT22;2352;48.180;11.478;2022-10-22T14:31:01;23.10;74.30
4677;DHT22;2352;48.180;11.478;2022-10-22T14:34:05;23.20;75.20
4677;DHT22;2352;48.180;11.478;2022-10-22T14:37:16;23.20;76.00
4677;DHT22;2352;48.180;11.478;2022-10-22T14:40:20;23.30;75.30
4677;DHT22;2352;48.180;11.478;2022-10-22T14:43:26;23.60;77.40
4677;DHT22;2352;48.180;11.478;2022-10-22T14:46:29;23.80;74.30
4677;DHT22;2352;48.180;11.478;2022-10-22T14:49:32;24.00;73.70
4677;DHT22;2352;48.180;11.478;2022-10-22T14:52:36;24.20;73.80
4677;DHT22;2352;48.180;11.478;2022-10-22T14:55:40;24.30;72.10
4677;DHT22;2352;48.180;11.478;2022-10-22T14:58:46;24.40;70.20
4677;DHT22;2352;48.180;11.478;2022-10-22T15:01:50;24.60;70.40
4677;DHT22;2352;48.180;11.478;2022-10-22T15:04:54;24.70;68.90
4677;DHT22;2352;48.180;11.478;2022-10-22T15:07:57;24.70;67.50
4677;DHT22;2352;48.180;11.478;2022-10-22T15:11:02;24.70;68.90
4677;DHT22;2352;48.180;11.478;2022-10-22T15:14:07;24.60;69.20
4677;DHT22;2352;48.180;11.478;2022-10-22T15:17:10;24.50;67.00
4677;DHT22;2352;48.180;11.478;2022-10-22T15:20:13;24.40;68.10
4677;DHT22;2352;48.180;11.478;2022-10-22T15:23:16;24.50;68.60
4677;DHT22;2352;48.180;11.478;2022-10-22T15:26:19;24.40;68.60
4677;DHT22;2352;48.180;11.478;2022-10-22T15:29:23;24.20;68.50
4677;DHT22;2352;48.180;11.478;2022-10-22T15:32:27;24.00;72.50
4677;DHT22;2352;48.180;11.478;2022-10-22T15:35:30;23.90;69.70
4677;DHT22;2352;48.180;11.478;2022-10-22T15:38:32;23.60;71.80
4677;DHT22;2352;48.180;11.478;2022-10-22T15:41:35;23.50;73.20
4677;DHT22;2352;48.180;11.478;2022-10-22T15:44:40;23.30;71.80
4677;DHT22;2352;48.180;11.478;2022-10-22T15:47:44;23.00;72.70
4677;DHT22;2352;48.180;11.478;2022-10-22T15:50:48;22.90;73.60
4677;DHT22;2352;48.180;11.478;2022-10-22T15:53:53;22.70;76.10
4677;DHT22;2352;48.180;11.478;2022-10-22T15:56:58;22.70;76.30
4677;DHT22;2352;48.180;11.478;2022-10-22T16:00:05;22.60;76.50
4677;DHT22;2352;48.180;11.478;2022-10-22T16:03:08;22.50;76.80
4677;DHT22;2352;48.180;11.478;2022-10-22T16:06:11;22.40;77.10
4677;DHT22;2352;48.180;11.478;2022-10-22T16:09:16;22.30;78.10
4677;DHT22;2352;48.180;11.478;2022-10-22T16:12:19;22.20;78.10
4677;DHT22;2352;48.180;11.478;2022-10-22T16:15:23;22.10;79.00
4677;DHT22;2352;48.180;11.478;2022-10-22T16:18:26;22.00;79.10
4677;DHT22;2352;48.180;11.478;2022-10-22T16:21:29;21.80;79.70
4677;DHT22;2352;48.180;11.478;2022-10-22T16:24:32;21.70;80.50
4677;DHT22;2352;48.180;11.478;2022-10-22T16:27:35;21.50;80.90
4677;DHT22;2352;48.180;11.478;2022-10-22T16:30:39;21.40;81.20
4677;DHT22;2352;48.180;11.478;2022-10-22T16:33:43;21.30;81.50
4677;DHT22;2352;48.180;11.478;2022-10-22T16:36:50;21.20;81.80
4677;DHT22;2352;48.180;11.478;2022-10-22T16:39:54;21.10;82.00
4677;DHT22;2352;48.180;11.478;2022-10-22T16:42:57;21.00;82.40
4677;DHT22;2352;48.180;11.478;2022-10-22T16:46:01;20.90;83.10
4677;DHT22;2352;48.180;11.478;2022-10-22T16:49:05;20.80;83.40
4677;DHT22;2352;48.180;11.478;2022-10-22T16:52:08;20.70;83.70
4677;DHT22;2352;48.180;11.478;2022-10-22T16:55:11;20.60;83.60
4677;DHT22;2352;48.180;11.478;2022-10-22T16:58:14;20.50;84.20
4677;DHT22;2352;48.180;11.478;2022-10-22T17:01:19;20.40;84.60
4677;DHT22;2352;48.180;11.478;2022-10-22T17:04:23;20.30;85.00
4677;DHT22;2352;48.180;11.478;2022-10-22T17:07:26;20.20;85.70
4677;DHT22;2352;48.180;11.478;2022-10-22T17:10:29;20.10;85.70
4677;DHT22;2352;48.180;11.478;2022-10-22T17:13:32;20.00;86.30
4677;DHT22;2352;48.180;11.478;2022-10-22T17:16:36;19.90;86.30
4677;DHT22;2352;48.180;11.478;2022-10-22T17:19:39;19.80;86.80
4677;DHT22;2352;48.180;11.478;2022-10-22T17:22:42;19.70;86.80
4677;DHT22;2352;48.180;11.478;2022-10-22T17:25:45;19.60;87.00
4677;DHT22;2352;48.180;11.478;2022-10-22T17:28:48;19.60;87.20
4677;DHT22;2352;48.180;11.478;2022-10-22T17:31:53;19.50;87.60
4677;DHT22;2352;48.180;11.478;2022-10-22T17:34:56;19.40;87.80
4677;DHT22;2352;48.180;11.478;2022-10-22T17:37:59;19.30;87.70
4677;DHT22;2352;48.180;11.478;2022-10-22T17:41:02;19.20;87.80
4677;DHT22;2352;48.180;11.478;2022-10-22T17:44:10;19.20;88.10
4677;DHT22;2352;48.180;11.478;2022-10-22T17:47:14;19.10;88.30
4677;DHT22;2352;48.180;11.478;2022-10-22T17:50:17;19.00;88.60
4677;DHT22;2352;48.180;11.478;2022-10-22T17:53:20;18.90;88.40
4677;DHT22;2352;48.180;11.478;2022-10-22T17:56:25;18.90;88.80
4677;DHT22;2352;48.180;11.478;2022-10-22T17:59:28;18.80;89.10
4677;DHT22;2352;48.180;11.478;2022-10-22T18:02:32;18.70;89.30
4677;DHT22;2352;48.180;11.478;2022-10-22T18:05:35;18.60;89.50
4677;DHT22;2352;48.180;11.478;2022-10-22T18:08:38;18.50;89.70
4677;DHT22;2352;48.180;11.478;2022-10-22T18:11:42;18.50;89.80
4677;DHT22;2352;48.180;11.478;2022-10-22T18:14:45;18.40;89.90
4677;DHT22;2352;48.180;11.478;2022-10-22T18:17:49;18.40;90.10
4677;DHT22;2352;48.180;11.478;2022-10-22T18:20:52;18.30;90.20
4677;DHT22;2352;48.180;11.478;2022-10-22T18:23:57;18.30;90.30
4677;DHT22;2352;48.180;11.478;2022-10-22T18:27:00;18.20;90.40
4677;DHT22;2352;48.180;11.478;2022-10-22T18:30:04;18.20;90.40
4677;DHT22;2352;48.180;11.478;2022-10-22T18:33:11;18.10;90.20
4677;DHT22;2352;48.180;11.478;2022-10-22T18:36:17;18.10;90.20
4677;DHT22;2352;48.180;11.478;2022-10-22T18:39:20;18.00;90.40
4677;DHT22;2352;48.180;11.478;2022-10-22T18:42:23;17.90;90.50
4677;DHT22;2352;48.180;11.478;2022-10-22T18:45:31;17.90;90.60
4677;DHT22;2352;48.180;11.478;2022-10-22T18:48:36;17.80;90.70
4677;DHT22;2352;48.180;11.478;2022-10-22T18:51:39;17.80;90.80
4677;DHT22;2352;48.180;11.478;2022-10-22T18:54:41;17.70;91.20
4677;DHT22;2352;48.180;11.478;2022-10-22T18:57:44;17.70;90.90
4677;DHT22;2352;48.180;11.478;2022-10-22T19:00:48;17.70;90.90
4677;DHT22;2352;48.180;11.478;2022-10-22T19:03:54;17.60;91.00
4677;DHT22;2352;48.180;11.478;2022-10-22T19:06:57;17.60;91.00
4677;DHT22;2352;48.180;11.478;2022-10-22T19:10:00;17.60;91.00
4677;DHT22;2352;48.180;11.478;2022-10-22T19:13:03;17.60;91.10
4677;DHT22;2352;48.180;11.478;2022-10-22T19:16:07;17.50;91.00
4677;DHT22;2352;48.180;11.478;2022-10-22T19:19:15;17.50;91.00
4677;DHT22;2352;48.180;11.478;2022-10-22T19:22:18;17.50;91.10
4677;DHT22;2352;48.180;11.478;2022-10-22T19:25:22;17.40;91.10
4677;DHT22;2352;48.180;11.478;2022-10-22T19:28:25;17.40;91.10
4677;DHT22;2352;48.180;11.478;2022-10-22T19:31:29;17.30;91.10
4677;DHT22;2352;48.180;11.478;2022-10-22T19:34:33;17.30;91.20
4677;DHT22;2352;48.180;11.478;2022-10-22T19:37:36;17.20;91.30
4677;DHT22;2352;48.180;11.478;2022-10-22T19:40:39;17.20;91.20
4677;DHT22;2352;48.180;11.478;2022-10-22T19:43:44;17.20;91.10
4677;DHT22;2352;48.180;11.478;2022-10-22T19:46:47;17.20;91.10
4677;DHT22;2352;48.180;11.478;2022-10-22T19:49:51;17.10;91.20
4677;DHT22;2352;48.180;11.478;2022-10-22T19:52:54;17.10;91.20